sensor_id;sensor_type;location;lat;lon;timestamp;temperature;humidity
5164;DHT22;2601;50.224;10.126;2022-08-11T00:00:07;17.50;64.60
5164;DHT22;2601;50.224;10.126;2022-08-11T00:02:36;17.40;65.10
5164;DHT22;2601;50.224;10.126;2022-08-11T00:05:08;17.40;64.70
5164;DHT22;2601;50.224;10.126;2022-08-11T00:10:15;17.30;65.10
5164;DHT22;2601;50.224;10.126;2022-08-11T00:12:43;17.30;66.30
5164;DHT22;2601;50.224;10.126;2022-08-11T00:15:15;17.30;65.90
5164;DHT22;2601;50.224;10.126;2022-08-11T00:17:43;17.30;66.80
5164;DHT22;2601;50.224;10.126;2022-08-11T00:20:11;17.30;66.30
5164;DHT22;2601;50.224;10.126;2022-08-11T00:22:40;17.30;66.00
5164;DHT22;2601;50.224;10.126;2022-08-11T00:25:19;17.20;66.30
5164;DHT22;2601;50.224;10.126;2022-08-11T00:27:46;17.20;66.30
5164;DHT22;2601;50.224;10.126;2022-08-11T00:30:13;17.30;67.30
5164;DHT22;2601;50.224;10.126;2022-08-11T00:32:45;17.20;67.50
5164;DHT22;2601;50.224;10.126;2022-08-11T00:35:17;17.20;68.30
5164;DHT22;2601;50.224;10.126;2022-08-11T00:37:49;17.10;68.10
5164;DHT22;2601;50.224;10.126;2022-08-11T00:43:58;17.00;69.40
5164;DHT22;2601;50.224;10.126;2022-08-11T00:46:39;17.00;69.80
5164;DHT22;2601;50.224;10.126;2022-08-11T00:55:06;17.00;69.90
5164;DHT22;2601;50.224;10.126;2022-08-11T01:01:04;17.00;70.20
5164;DHT22;2601;50.224;10.126;2022-08-11T01:09:40;16.80;72.20
5164;DHT22;2601;50.224;10.126;2022-08-11T01:18:41;16.60;72.70
5164;DHT22;2601;50.224;10.126;2022-08-11T01:21:42;16.70;74.10
5164;DHT22;2601;50.224;10.126;2022-08-11T01:33:07;16.40;76.90
5164;DHT22;2601;50.224;10.126;2022-08-11T01:41:58;16.40;78.80
5164;DHT22;2601;50.224;10.126;2022-08-11T01:50:39;16.30;81.60
5164;DHT22;2601;50.224;10.126;2022-08-11T01:58:56;16.20;81.80
5164;DHT22;2601;50.224;10.126;2022-08-11T02:04:24;16.00;85.10
5164;DHT22;2601;50.224;10.126;2022-08-11T02:12:45;15.90;87.10
5164;DHT22;2601;50.224;10.126;2022-08-11T02:15:29;16.00;87.40
5164;DHT22;2601;50.224;10.126;2022-08-11T02:18:32;15.90;88.30
5164;DHT22;2601;50.224;10.126;2022-08-11T02:21:41;15.90;87.70
5164;DHT22;2601;50.224;10.126;2022-08-11T02:24:34;15.90;89.70
5164;DHT22;2601;50.224;10.126;2022-08-11T02:27:08;15.80;90.10
5164;DHT22;2601;50.224;10.126;2022-08-11T02:29:58;15.70;90.80
5164;DHT22;2601;50.224;10.126;2022-08-11T02:38:22;15.40;92.00
5164;DHT22;2601;50.224;10.126;2022-08-11T02:43:23;15.50;92.50
5164;DHT22;2601;50.224;10.126;2022-08-11T02:46:28;15.40;92.30
5164;DHT22;2601;50.224;10.126;2022-08-11T02:49:10;15.20;92.90
5164;DHT22;2601;50.224;10.126;2022-08-11T02:58:02;15.30;93.60
5164;DHT22;2601;50.224;10.126;2022-08-11T03:00:46;15.30;93.70
5164;DHT22;2601;50.224;10.126;2022-08-11T03:03:24;15.30;93.70
5164;DHT22;2601;50.224;10.126;2022-08-11T03:06:08;15.40;93.90
5164;DHT22;2601;50.224;10.126;2022-08-11T03:08:48;15.40;94.00
5164;DHT22;2601;50.224;10.126;2022-08-11T03:11:25;15.40;94.00
5164;DHT22;2601;50.224;10.126;2022-08-11T03:14:24;15.40;94.00
5164;DHT22;2601;50.224;10.126;2022-08-11T03:20:22;15.30;94.60
5164;DHT22;2601;50.224;10.126;2022-08-11T03:29:26;15.20;94.90
5164;DHT22;2601;50.224;10.126;2022-08-11T03:31:40;15.00;94.90
5164;DHT22;2601;50.224;10.126;2022-08-11T03:34:17;14.80;95.00
5164;DHT22;2601;50.224;10.126;2022-08-11T03:40:02;14.80;95.90
5164;DHT22;2601;50.224;10.126;2022-08-11T03:43:02;14.70;95.70
5164;DHT22;2601;50.224;10.126;2022-08-11T03:48:19;14.60;96.70
5164;DHT22;2601;50.224;10.126;2022-08-11T03:57:02;14.50;97.40
5164;DHT22;2601;50.224;10.126;2022-08-11T04:00:10;14.60;97.30
5164;DHT22;2601;50.224;10.126;2022-08-11T04:08:16;14.40;98.10
5164;DHT22;2601;50.224;10.126;2022-08-11T04:17:45;14.60;98.00
5164;DHT22;2601;50.224;10.126;2022-08-11T04:23:36;14.60;98.20
5164;DHT22;2601;50.224;10.126;2022-08-11T04:29:06;14.50;98.40
5164;DHT22;2601;50.224;10.126;2022-08-11T04:34:58;14.60;98.50
5164;DHT22;2601;50.224;10.126;2022-08-11T04:38:24;14.70;98.20
5164;DHT22;2601;50.224;10.126;2022-08-11T04:44:24;14.80;98.40
5164;DHT22;2601;50.224;10.126;2022-08-11T04:47:12;14.80;98.40
5164;DHT22;2601;50.224;10.126;2022-08-11T04:50:14;14.80;98.20
5164;DHT22;2601;50.224;10.126;2022-08-11T04:55:35;14.90;98.50
5164;DHT22;2601;50.224;10.126;2022-08-11T05:01:26;15.00;98.30
5164;DHT22;2601;50.224;10.126;2022-08-11T05:07:20;15.20;97.50
5164;DHT22;2601;50.224;10.126;2022-08-11T05:12:55;15.30;97.10
5164;DHT22;2601;50.224;10.126;2022-08-11T05:15:53;15.50;96.90
5164;DHT22;2601;50.224;10.126;2022-08-11T05:18:49;15.60;96.50
5164;DHT22;2601;50.224;10.126;2022-08-11T05:21:35;15.70;96.40
5164;DHT22;2601;50.224;10.126;2022-08-11T05:24:36;15.60;96.70
5164;DHT22;2601;50.224;10.126;2022-08-11T05:27:43;15.70;96.70
5164;DHT22;2601;50.224;10.126;2022-08-11T05:30:29;15.70;97.00
5164;DHT22;2601;50.224;10.126;2022-08-11T05:33:32;15.90;96.40
5164;DHT22;2601;50.224;10.126;2022-08-11T05:36:23;16.00;96.30
5164;DHT22;2601;50.224;10.126;2022-08-11T05:38:56;16.10;95.90
5164;DHT22;2601;50.224;10.126;2022-08-11T05:41:42;16.40;95.30
5164;DHT22;2601;50.224;10.126;2022-08-11T05:44:27;16.50;95.00
5164;DHT22;2601;50.224;10.126;2022-08-11T05:47:22;16.60;94.80
5164;DHT22;2601;50.224;10.126;2022-08-11T05:50:11;16.70;94.70
5164;DHT22;2601;50.224;10.126;2022-08-11T05:52:57;16.90;94.40
5164;DHT22;2601;50.224;10.126;2022-08-11T05:55:43;17.10;94.10
5164;DHT22;2601;50.224;10.126;2022-08-11T05:58:34;17.10;94.10
5164;DHT22;2601;50.224;10.126;2022-08-11T06:01:00;17.30;94.30
5164;DHT22;2601;50.224;10.126;2022-08-11T06:03:28;17.50;93.60
5164;DHT22;2601;50.224;10.126;2022-08-11T06:05:56;17.70;93.00
5164;DHT22;2601;50.224;10.126;2022-08-11T06:08:30;17.70;92.90
5164;DHT22;2601;50.224;10.126;2022-08-11T06:11:02;17.80;92.50
5164;DHT22;2601;50.224;10.126;2022-08-11T06:13:29;18.10;92.20
5164;DHT22;2601;50.224;10.126;2022-08-11T06:15:56;18.30;91.20
5164;DHT22;2601;50.224;10.126;2022-08-11T06:18:23;18.40;91.00
5164;DHT22;2601;50.224;10.126;2022-08-11T06:20:56;18.70;90.60
5164;DHT22;2601;50.224;10.126;2022-08-11T06:23:30;19.00;89.50
5164;DHT22;2601;50.224;10.126;2022-08-11T06:25:57;19.20;88.40
5164;DHT22;2601;50.224;10.126;2022-08-11T06:28:31;19.40;87.30
5164;DHT22;2601;50.224;10.126;2022-08-11T06:30:58;19.70;87.20
5164;DHT22;2601;50.224;10.126;2022-08-11T06:33:35;19.90;85.20
5164;DHT22;2601;50.224;10.126;2022-08-11T06:36:25;20.00;84.20
5164;DHT22;2601;50.224;10.126;2022-08-11T06:41:52;20.60;80.10
5164;DHT22;2601;50.224;10.126;2022-08-11T06:47:10;21.20;76.30
5164;DHT22;2601;50.224;10.126;2022-08-11T06:49:44;21.30;75.10
5164;DHT22;2601;50.224;10.126;2022-08-11T06:52:36;21.60;74.90
5164;DHT22;2601;50.224;10.126;2022-08-11T06:55:23;21.80;73.00
5164;DHT22;2601;50.224;10.126;2022-08-11T06:58:13;21.90;72.20
5164;DHT22;2601;50.224;10.126;2022-08-11T07:01:03;22.00;71.60
5164;DHT22;2601;50.224;10.126;2022-08-11T07:03:36;22.10;70.40
5164;DHT22;2601;50.224;10.126;2022-08-11T07:11:58;22.40;69.80
5164;DHT22;2601;50.224;10.126;2022-08-11T07:14:50;22.50;69.10
5164;DHT22;2601;50.224;10.126;2022-08-11T07:17:43;22.60;68.20
5164;DHT22;2601;50.224;10.126;2022-08-11T07:20:14;22.70;67.80
5164;DHT22;2601;50.224;10.126;2022-08-11T07:23:01;22.70;67.30
5164;DHT22;2601;50.224;10.126;2022-08-11T07:25:51;22.80;67.40
5164;DHT22;2601;50.224;10.126;2022-08-11T07:28:47;23.00;68.10
5164;DHT22;2601;50.224;10.126;2022-08-11T07:31:36;23.30;66.20
5164;DHT22;2601;50.224;10.126;2022-08-11T07:34:27;23.50;66.10
5164;DHT22;2601;50.224;10.126;2022-08-11T07:37:09;23.70;64.90
5164;DHT22;2601;50.224;10.126;2022-08-11T07:39:37;23.70;64.50
5164;DHT22;2601;50.224;10.126;2022-08-11T07:42:08;23.80;63.40
5164;DHT22;2601;50.224;10.126;2022-08-11T07:44:35;23.90;63.60
5164;DHT22;2601;50.224;10.126;2022-08-11T07:47:25;24.20;63.40
5164;DHT22;2601;50.224;10.126;2022-08-11T07:50:11;24.40;61.60
5164;DHT22;2601;50.224;10.126;2022-08-11T07:52:57;24.60;61.60
5164;DHT22;2601;50.224;10.126;2022-08-11T07:55:25;24.80;61.10
5164;DHT22;2601;50.224;10.126;2022-08-11T07:57:52;25.00;60.10
5164;DHT22;2601;50.224;10.126;2022-08-11T08:00:55;25.00;59.80
5164;DHT22;2601;50.224;10.126;2022-08-11T08:03:41;25.00;59.70
5164;DHT22;2601;50.224;10.126;2022-08-11T08:06:27;25.00;59.10
5164;DHT22;2601;50.224;10.126;2022-08-11T08:09:13;25.00;59.40
5164;DHT22;2601;50.224;10.126;2022-08-11T08:12:00;25.30;58.70
5164;DHT22;2601;50.224;10.126;2022-08-11T08:14:45;25.50;58.40
5164;DHT22;2601;50.224;10.126;2022-08-11T08:17:31;25.70;57.60
5164;DHT22;2601;50.224;10.126;2022-08-11T08:20:18;25.70;57.10
5164;DHT22;2601;50.224;10.126;2022-08-11T08:22:53;25.70;57.00
5164;DHT22;2601;50.224;10.126;2022-08-11T08:25:33;25.70;56.60
5164;DHT22;2601;50.224;10.126;2022-08-11T08:28:02;25.80;57.40
5164;DHT22;2601;50.224;10.126;2022-08-11T08:30:29;26.00;56.60
5164;DHT22;2601;50.224;10.126;2022-08-11T08:33:26;25.80;55.90
5164;DHT22;2601;50.224;10.126;2022-08-11T08:36:02;26.00;56.50
5164;DHT22;2601;50.224;10.126;2022-08-11T08:38:49;26.30;56.20
5164;DHT22;2601;50.224;10.126;2022-08-11T08:41:28;26.70;54.30
5164;DHT22;2601;50.224;10.126;2022-08-11T08:44:03;27.00;53.70
5164;DHT22;2601;50.224;10.126;2022-08-11T08:46:35;27.20;52.40
5164;DHT22;2601;50.224;10.126;2022-08-11T08:49:03;27.30;52.00
5164;DHT22;2601;50.224;10.126;2022-08-11T08:51:31;27.30;51.20
5164;DHT22;2601;50.224;10.126;2022-08-11T08:54:09;27.30;51.90
5164;DHT22;2601;50.224;10.126;2022-08-11T08:56:39;27.50;51.70
5164;DHT22;2601;50.224;10.126;2022-08-11T08:59:05;27.70;50.40
5164;DHT22;2601;50.224;10.126;2022-08-11T09:02:02;27.80;51.10
5164;DHT22;2601;50.224;10.126;2022-08-11T09:04:29;28.00;50.00
5164;DHT22;2601;50.224;10.126;2022-08-11T09:06:58;27.70;49.00
5164;DHT22;2601;50.224;10.126;2022-08-11T09:09:25;27.90;49.30
5164;DHT22;2601;50.224;10.126;2022-08-11T09:11:52;28.20;49.10
5164;DHT22;2601;50.224;10.126;2022-08-11T09:14:35;28.40;48.50
5164;DHT22;2601;50.224;10.126;2022-08-11T09:17:23;28.50;47.00
5164;DHT22;2601;50.224;10.126;2022-08-11T09:20:02;28.60;46.30
5164;DHT22;2601;50.224;10.126;2022-08-11T09:22:31;29.10;45.10
5164;DHT22;2601;50.224;10.126;2022-08-11T09:25:17;29.20;43.80
5164;DHT22;2601;50.224;10.126;2022-08-11T09:28:03;29.40;44.10
5164;DHT22;2601;50.224;10.126;2022-08-11T09:30:30;29.60;43.50
5164;DHT22;2601;50.224;10.126;2022-08-11T09:32:58;29.90;43.40
5164;DHT22;2601;50.224;10.126;2022-08-11T09:35:32;30.30;42.20
5164;DHT22;2601;50.224;10.126;2022-08-11T09:37:59;30.50;41.90
5164;DHT22;2601;50.224;10.126;2022-08-11T09:40:46;30.60;41.80
5164;DHT22;2601;50.224;10.126;2022-08-11T09:43:16;30.40;40.30
5164;DHT22;2601;50.224;10.126;2022-08-11T09:46:02;30.30;41.40
5164;DHT22;2601;50.224;10.126;2022-08-11T09:48:34;30.40;40.60
5164;DHT22;2601;50.224;10.126;2022-08-11T09:51:01;30.40;40.60
5164;DHT22;2601;50.224;10.126;2022-08-11T09:53:30;30.30;39.70
5164;DHT22;2601;50.224;10.126;2022-08-11T09:55:58;30.40;40.90
5164;DHT22;2601;50.224;10.126;2022-08-11T09:58:45;30.70;40.30
5164;DHT22;2601;50.224;10.126;2022-08-11T10:01:11;30.80;40.20
5164;DHT22;2601;50.224;10.126;2022-08-11T10:03:55;30.80;40.10
5164;DHT22;2601;50.224;10.126;2022-08-11T10:06:25;31.00;39.70
5164;DHT22;2601;50.224;10.126;2022-08-11T10:09:11;31.30;39.40
5164;DHT22;2601;50.224;10.126;2022-08-11T10:11:38;30.90;39.70
5164;DHT22;2601;50.224;10.126;2022-08-11T10:14:06;30.60;39.50
5164;DHT22;2601;50.224;10.126;2022-08-11T10:16:51;30.80;39.70
5164;DHT22;2601;50.224;10.126;2022-08-11T10:19:18;31.50;39.40
5164;DHT22;2601;50.224;10.126;2022-08-11T10:21:49;31.90;38.70
5164;DHT22;2601;50.224;10.126;2022-08-11T10:24:34;32.00;37.80
5164;DHT22;2601;50.224;10.126;2022-08-11T10:27:19;31.80;38.00
5164;DHT22;2601;50.224;10.126;2022-08-11T10:29:45;31.50;38.30
5164;DHT22;2601;50.224;10.126;2022-08-11T10:32:31;31.30;38.70
5164;DHT22;2601;50.224;10.126;2022-08-11T10:35:17;31.40;38.80
5164;DHT22;2601;50.224;10.126;2022-08-11T10:37:45;31.50;38.40
5164;DHT22;2601;50.224;10.126;2022-08-11T10:40:17;31.90;38.10
5164;DHT22;2601;50.224;10.126;2022-08-11T10:42:50;32.40;37.80
5164;DHT22;2601;50.224;10.126;2022-08-11T10:45:36;32.70;37.10
5164;DHT22;2601;50.224;10.126;2022-08-11T10:48:35;32.80;36.90
5164;DHT22;2601;50.224;10.126;2022-08-11T10:51:02;33.10;35.50
5164;DHT22;2601;50.224;10.126;2022-08-11T10:53:46;33.00;36.10
5164;DHT22;2601;50.224;10.126;2022-08-11T10:56:36;33.00;36.50
5164;DHT22;2601;50.224;10.126;2022-08-11T10:59:22;33.50;35.90
5164;DHT22;2601;50.224;10.126;2022-08-11T11:01:50;33.10;35.80
5164;DHT22;2601;50.224;10.126;2022-08-11T11:04:20;33.30;35.60
5164;DHT22;2601;50.224;10.126;2022-08-11T11:07:07;33.00;35.90
5164;DHT22;2601;50.224;10.126;2022-08-11T11:09:55;33.00;35.60
5164;DHT22;2601;50.224;10.126;2022-08-11T11:12:43;33.10;35.60
5164;DHT22;2601;50.224;10.126;2022-08-11T11:15:30;33.30;34.80
5164;DHT22;2601;50.224;10.126;2022-08-11T11:18:28;34.10;34.30
5164;DHT22;2601;50.224;10.126;2022-08-11T11:21:14;34.10;33.60
5164;DHT22;2601;50.224;10.126;2022-08-11T11:24:07;33.90;32.90
5164;DHT22;2601;50.224;10.126;2022-08-11T11:32:08;34.30;33.30
5164;DHT22;2601;50.224;10.126;2022-08-11T11:35:31;34.70;32.00
5164;DHT22;2601;50.224;10.126;2022-08-11T11:37:37;34.20;32.50
5164;DHT22;2601;50.224;10.126;2022-08-11T11:40:10;34.30;32.40
5164;DHT22;2601;50.224;10.126;2022-08-11T11:42:38;34.30;32.60
5164;DHT22;2601;50.224;10.126;2022-08-11T11:45:06;34.30;32.00
5164;DHT22;2601;50.224;10.126;2022-08-11T11:47:32;34.40;31.00
5164;DHT22;2601;50.224;10.126;2022-08-11T11:50:01;34.50;31.50
5164;DHT22;2601;50.224;10.126;2022-08-11T11:52:27;34.70;31.50
5164;DHT22;2601;50.224;10.126;2022-08-11T11:54:55;34.90;31.00
5164;DHT22;2601;50.224;10.126;2022-08-11T11:57:22;35.10;30.40
5164;DHT22;2601;50.224;10.126;2022-08-11T12:00:09;35.20;30.70
5164;DHT22;2601;50.224;10.126;2022-08-11T12:02:56;35.20;30.90
5164;DHT22;2601;50.224;10.126;2022-08-11T12:05:24;35.90;30.00
5164;DHT22;2601;50.224;10.126;2022-08-11T12:07:51;35.40;30.00
5164;DHT22;2601;50.224;10.126;2022-08-11T12:10:38;34.80;30.00
5164;DHT22;2601;50.224;10.126;2022-08-11T12:13:05;34.60;30.60
5164;DHT22;2601;50.224;10.126;2022-08-11T12:15:50;35.00;30.70
5164;DHT22;2601;50.224;10.126;2022-08-11T12:18:17;35.10;30.00
5164;DHT22;2601;50.224;10.126;2022-08-11T12:20:44;35.00;30.10
5164;DHT22;2601;50.224;10.126;2022-08-11T12:23:11;35.10;29.80
5164;DHT22;2601;50.224;10.126;2022-08-11T12:25:57;35.10;28.70
5164;DHT22;2601;50.224;10.126;2022-08-11T12:28:43;35.60;29.30
5164;DHT22;2601;50.224;10.126;2022-08-11T12:31:10;35.80;29.00
5164;DHT22;2601;50.224;10.126;2022-08-11T12:33:37;35.60;29.50
5164;DHT22;2601;50.224;10.126;2022-08-11T12:36:07;35.40;29.80
5164;DHT22;2601;50.224;10.126;2022-08-11T12:38:34;35.30;29.80
5164;DHT22;2601;50.224;10.126;2022-08-11T12:41:01;35.80;29.50
5164;DHT22;2601;50.224;10.126;2022-08-11T12:43:46;36.20;28.50
5164;DHT22;2601;50.224;10.126;2022-08-11T12:46:35;35.80;29.10
5164;DHT22;2601;50.224;10.126;2022-08-11T12:49:20;36.20;28.80
5164;DHT22;2601;50.224;10.126;2022-08-11T12:52:10;36.00;29.10
5164;DHT22;2601;50.224;10.126;2022-08-11T12:54:59;36.10;29.20
5164;DHT22;2601;50.224;10.126;2022-08-11T12:57:42;36.00;28.90
5164;DHT22;2601;50.224;10.126;2022-08-11T13:00:29;36.10;28.80
5164;DHT22;2601;50.224;10.126;2022-08-11T13:03:16;36.50;28.50
5164;DHT22;2601;50.224;10.126;2022-08-11T13:06:03;36.70;28.00
5164;DHT22;2601;50.224;10.126;2022-08-11T13:08:32;37.40;27.60
5164;DHT22;2601;50.224;10.126;2022-08-11T13:10:59;38.10;27.50
5164;DHT22;2601;50.224;10.126;2022-08-11T13:13:46;37.90;26.90
5164;DHT22;2601;50.224;10.126;2022-08-11T13:16:13;37.90;27.50
5164;DHT22;2601;50.224;10.126;2022-08-11T13:18:40;38.20;27.50
5164;DHT22;2601;50.224;10.126;2022-08-11T13:21:09;37.60;27.50
5164;DHT22;2601;50.224;10.126;2022-08-11T13:23:37;37.50;28.00
5164;DHT22;2601;50.224;10.126;2022-08-11T13:26:04;37.90;27.70
5164;DHT22;2601;50.224;10.126;2022-08-11T13:28:32;38.70;26.80
5164;DHT22;2601;50.224;10.126;2022-08-11T13:31:01;38.00;26.70
5164;DHT22;2601;50.224;10.126;2022-08-11T13:33:46;37.60;27.40
5164;DHT22;2601;50.224;10.126;2022-08-11T13:36:18;37.30;27.70
5164;DHT22;2601;50.224;10.126;2022-08-11T13:38:44;37.50;27.60
5164;DHT22;2601;50.224;10.126;2022-08-11T13:41:11;38.60;26.70
5164;DHT22;2601;50.224;10.126;2022-08-11T13:43:55;38.30;27.00
5164;DHT22;2601;50.224;10.126;2022-08-11T13:46:22;38.30;26.60
5164;DHT22;2601;50.224;10.126;2022-08-11T13:48:50;37.60;26.80
5164;DHT22;2601;50.224;10.126;2022-08-11T13:51:17;37.60;26.70
5164;DHT22;2601;50.224;10.126;2022-08-11T13:54:07;37.70;27.00
5164;DHT22;2601;50.224;10.126;2022-08-11T13:56:38;38.00;26.80
5164;DHT22;2601;50.224;10.126;2022-08-11T13:59:09;38.40;26.70
5164;DHT22;2601;50.224;10.126;2022-08-11T14:01:41;38.90;26.50
5164;DHT22;2601;50.224;10.126;2022-08-11T14:04:11;38.80;26.40
5164;DHT22;2601;50.224;10.126;2022-08-11T14:06:44;38.80;26.30
5164;DHT22;2601;50.224;10.126;2022-08-11T14:09:11;39.50;26.40
5164;DHT22;2601;50.224;10.126;2022-08-11T14:11:40;39.30;25.90
5164;DHT22;2601;50.224;10.126;2022-08-11T14:14:31;38.90;25.90
5164;DHT22;2601;50.224;10.126;2022-08-11T14:17:03;39.50;26.10
5164;DHT22;2601;50.224;10.126;2022-08-11T14:19:31;40.10;25.70
5164;DHT22;2601;50.224;10.126;2022-08-11T14:22:00;40.60;25.40
5164;DHT22;2601;50.224;10.126;2022-08-11T14:24:39;40.80;24.70
5164;DHT22;2601;50.224;10.126;2022-08-11T14:27:07;40.60;24.70
5164;DHT22;2601;50.224;10.126;2022-08-11T14:29:34;40.80;23.90
5164;DHT22;2601;50.224;10.126;2022-08-11T14:32:06;40.30;24.60
5164;DHT22;2601;50.224;10.126;2022-08-11T14:34:34;40.10;24.50
5164;DHT22;2601;50.224;10.126;2022-08-11T14:37:11;40.90;24.30
5164;DHT22;2601;50.224;10.126;2022-08-11T14:39:49;41.40;24.00
5164;DHT22;2601;50.224;10.126;2022-08-11T14:42:17;41.10;24.20
5164;DHT22;2601;50.224;10.126;2022-08-11T14:45:14;41.60;24.20
5164;DHT22;2601;50.224;10.126;2022-08-11T14:48:00;42.10;23.80
5164;DHT22;2601;50.224;10.126;2022-08-11T14:50:32;42.00;24.00
5164;DHT22;2601;50.224;10.126;2022-08-11T14:55:27;40.50;24.20
5164;DHT22;2601;50.224;10.126;2022-08-11T14:58:16;40.60;24.30
5164;DHT22;2601;50.224;10.126;2022-08-11T15:00:43;40.20;24.30
5164;DHT22;2601;50.224;10.126;2022-08-11T15:03:12;40.40;24.30
5164;DHT22;2601;50.224;10.126;2022-08-11T15:05:49;40.40;24.30
5164;DHT22;2601;50.224;10.126;2022-08-11T15:08:16;39.70;24.50
5164;DHT22;2601;50.224;10.126;2022-08-11T15:10:44;39.40;24.90
5164;DHT22;2601;50.224;10.126;2022-08-11T15:13:10;39.70;24.70
5164;DHT22;2601;50.224;10.126;2022-08-11T15:15:37;40.10;24.80
5164;DHT22;2601;50.224;10.126;2022-08-11T15:18:23;40.80;24.60
5164;DHT22;2601;50.224;10.126;2022-08-11T15:20:50;41.30;23.90
5164;DHT22;2601;50.224;10.126;2022-08-11T15:23:34;41.60;24.80
5164;DHT22;2601;50.224;10.126;2022-08-11T15:29:21;40.80;24.40
5164;DHT22;2601;50.224;10.126;2022-08-11T15:32:09;41.60;24.20
5164;DHT22;2601;50.224;10.126;2022-08-11T15:34:48;41.30;24.40
5164;DHT22;2601;50.224;10.126;2022-08-11T15:37:35;40.40;24.80
5164;DHT22;2601;50.224;10.126;2022-08-11T15:40:17;40.00;24.60
5164;DHT22;2601;50.224;10.126;2022-08-11T15:46:07;40.10;24.30
5164;DHT22;2601;50.224;10.126;2022-08-11T15:48:43;40.10;25.00
5164;DHT22;2601;50.224;10.126;2022-08-11T15:51:20;40.80;24.70
5164;DHT22;2601;50.224;10.126;2022-08-11T15:53:57;41.00;24.60
5164;DHT22;2601;50.224;10.126;2022-08-11T15:56:26;40.50;25.20
5164;DHT22;2601;50.224;10.126;2022-08-11T15:58:54;41.00;24.90
5164;DHT22;2601;50.224;10.126;2022-08-11T16:01:41;41.00;24.70
5164;DHT22;2601;50.224;10.126;2022-08-11T16:04:28;40.90;24.30
5164;DHT22;2601;50.224;10.126;2022-08-11T16:07:05;41.10;24.00
5164;DHT22;2601;50.224;10.126;2022-08-11T16:09:39;40.70;24.70
5164;DHT22;2601;50.224;10.126;2022-08-11T16:12:12;40.30;24.20
5164;DHT22;2601;50.224;10.126;2022-08-11T16:14:42;40.00;24.90
5164;DHT22;2601;50.224;10.126;2022-08-11T16:17:30;40.60;24.90
5164;DHT22;2601;50.224;10.126;2022-08-11T16:19:59;40.40;24.50
5164;DHT22;2601;50.224;10.126;2022-08-11T16:22:31;39.60;25.40
5164;DHT22;2601;50.224;10.126;2022-08-11T16:25:07;39.60;25.50
5164;DHT22;2601;50.224;10.126;2022-08-11T16:27:46;40.30;25.40
5164;DHT22;2601;50.224;10.126;2022-08-11T16:30:17;40.00;24.80
5164;DHT22;2601;50.224;10.126;2022-08-11T16:32:46;40.30;25.30
5164;DHT22;2601;50.224;10.126;2022-08-11T16:35:18;40.30;24.70
5164;DHT22;2601;50.224;10.126;2022-08-11T16:38:04;40.00;24.80
5164;DHT22;2601;50.224;10.126;2022-08-11T16:40:55;38.40;25.30
5164;DHT22;2601;50.224;10.126;2022-08-11T16:43:24;36.50;26.40
5164;DHT22;2601;50.224;10.126;2022-08-11T16:46:13;35.50;27.00
5164;DHT22;2601;50.224;10.126;2022-08-11T16:48:57;34.50;28.10
5164;DHT22;2601;50.224;10.126;2022-08-11T16:51:24;33.60;28.70
5164;DHT22;2601;50.224;10.126;2022-08-11T16:53:50;33.00;29.00
5164;DHT22;2601;50.224;10.126;2022-08-11T16:56:22;32.90;29.50
5164;DHT22;2601;50.224;10.126;2022-08-11T16:58:56;32.70;29.40
5164;DHT22;2601;50.224;10.126;2022-08-11T17:07:07;32.00;30.50
5164;DHT22;2601;50.224;10.126;2022-08-11T17:09:54;32.20;30.00
5164;DHT22;2601;50.224;10.126;2022-08-11T17:12:40;32.40;30.00
5164;DHT22;2601;50.224;10.126;2022-08-11T17:15:26;32.40;30.30
5164;DHT22;2601;50.224;10.126;2022-08-11T17:18:13;32.80;29.60
5164;DHT22;2601;50.224;10.126;2022-08-11T17:21:01;33.60;29.50
5164;DHT22;2601;50.224;10.126;2022-08-11T17:23:30;33.90;28.90
5164;DHT22;2601;50.224;10.126;2022-08-11T17:26:27;34.20;28.90
5164;DHT22;2601;50.224;10.126;2022-08-11T17:29:16;34.90;28.60
5164;DHT22;2601;50.224;10.126;2022-08-11T17:31:43;35.20;28.30
5164;DHT22;2601;50.224;10.126;2022-08-11T17:34:29;35.00;28.60
5164;DHT22;2601;50.224;10.126;2022-08-11T17:37:14;35.10;28.40
5164;DHT22;2601;50.224;10.126;2022-08-11T17:39:41;35.20;28.20
5164;DHT22;2601;50.224;10.126;2022-08-11T17:42:08;34.80;28.30
5164;DHT22;2601;50.224;10.126;2022-08-11T17:44:53;34.70;28.50
5164;DHT22;2601;50.224;10.126;2022-08-11T17:47:39;34.10;28.70
5164;DHT22;2601;50.224;10.126;2022-08-11T17:50:24;32.90;29.30
5164;DHT22;2601;50.224;10.126;2022-08-11T17:52:51;31.70;30.40
5164;DHT22;2601;50.224;10.126;2022-08-11T17:55:37;30.80;31.10
5164;DHT22;2601;50.224;10.126;2022-08-11T17:58:23;30.20;32.30
5164;DHT22;2601;50.224;10.126;2022-08-11T18:01:10;29.80;32.80
5164;DHT22;2601;50.224;10.126;2022-08-11T18:03:38;29.40;33.30
5164;DHT22;2601;50.224;10.126;2022-08-11T18:06:07;29.10;33.80
5164;DHT22;2601;50.224;10.126;2022-08-11T18:08:37;28.90;34.20
5164;DHT22;2601;50.224;10.126;2022-08-11T18:11:23;28.80;34.50
5164;DHT22;2601;50.224;10.126;2022-08-11T18:14:09;28.60;34.80
5164;DHT22;2601;50.224;10.126;2022-08-11T18:16:54;28.50;34.80
5164;DHT22;2601;50.224;10.126;2022-08-11T18:19:39;28.40;35.10
5164;DHT22;2601;50.224;10.126;2022-08-11T18:22:27;28.10;35.50
5164;DHT22;2601;50.224;10.126;2022-08-11T18:25:15;28.00;35.80
5164;DHT22;2601;50.224;10.126;2022-08-11T18:28:00;27.80;36.30
5164;DHT22;2601;50.224;10.126;2022-08-11T18:30:49;27.70;36.30
5164;DHT22;2601;50.224;10.126;2022-08-11T18:33:50;27.60;36.70
5164;DHT22;2601;50.224;10.126;2022-08-11T18:36:40;27.40;37.20
5164;DHT22;2601;50.224;10.126;2022-08-11T18:39:29;27.30;37.30
5164;DHT22;2601;50.224;10.126;2022-08-11T18:42:16;27.20;37.30
5164;DHT22;2601;50.224;10.126;2022-08-11T18:45:03;27.10;37.80
5164;DHT22;2601;50.224;10.126;2022-08-11T18:47:51;27.00;37.90
5164;DHT22;2601;50.224;10.126;2022-08-11T18:50:41;26.80;38.20
5164;DHT22;2601;50.224;10.126;2022-08-11T18:53:27;26.70;38.60
5164;DHT22;2601;50.224;10.126;2022-08-11T18:56:14;26.50;38.60
5164;DHT22;2601;50.224;10.126;2022-08-11T18:59:01;26.30;38.90
5164;DHT22;2601;50.224;10.126;2022-08-11T19:01:47;26.20;39.30
5164;DHT22;2601;50.224;10.126;2022-08-11T19:04:34;26.10;39.30
5164;DHT22;2601;50.224;10.126;2022-08-11T19:07:19;26.10;39.30
5164;DHT22;2601;50.224;10.126;2022-08-11T19:10:05;26.00;39.30
5164;DHT22;2601;50.224;10.126;2022-08-11T19:12:50;25.90;39.70
5164;DHT22;2601;50.224;10.126;2022-08-11T19:15:36;25.80;39.40
5164;DHT22;2601;50.224;10.126;2022-08-11T19:18:22;25.60;39.90
5164;DHT22;2601;50.224;10.126;2022-08-11T19:21:08;25.50;40.20
5164;DHT22;2601;50.224;10.126;2022-08-11T19:23:56;25.40;40.70
5164;DHT22;2601;50.224;10.126;2022-08-11T19:26:42;25.20;40.50
5164;DHT22;2601;50.224;10.126;2022-08-11T19:29:28;25.20;40.60
5164;DHT22;2601;50.224;10.126;2022-08-11T19:32:14;25.10;40.40
5164;DHT22;2601;50.224;10.126;2022-08-11T19:35:00;25.00;40.80
5164;DHT22;2601;50.224;10.126;2022-08-11T19:37:46;24.90;40.70
5164;DHT22;2601;50.224;10.126;2022-08-11T19:40:32;24.80;40.80
5164;DHT22;2601;50.224;10.126;2022-08-11T19:43:17;24.80;41.00
5164;DHT22;2601;50.224;10.126;2022-08-11T19:46:04;24.70;41.10